Time;durP1;ratioP1;P1;durP2;ratioP2;P2;SDS_P1;SDS_P2;PMS_P1;PMS_P2;Temp;Humidity;BMP_temperature;BMP_pressure;BME280_temperature;BME280_humidity;BME280_pressure;Samples;Min_cycle;Max_cycle;Signal;HPM_P1;HPM_P2
2021/03/01 00:01:07;;;;;;;20.53;9.97;;;3.10;64.10;;;3.64;53.12;99042.97;5062300;28;20045;-32
2021/03/01 00:03:35;;;;;;;15.67;9.13;;;3.00;64.10;;;3.62;53.14;99039.56;5061456;28;20070;-33
2021/03/01 00:06:03;;;;;;;20.80;10.30;;;3.10;64.30;;;3.58;53.12;99041.50;5062044;28;20055;-33
2021/03/01 00:08:30;;;;;;;16.77;9.77;;;3.00;64.10;;;3.57;53.41;99046.84;5062244;28;20059;-33
2021/03/01 00:10:58;;;;;;;14.73;7.53;;;3.00;64.30;;;3.56;53.36;99046.00;5044577;28;20071;-33
2021/03/01 00:13:25;;;;;;;16.73;8.47;;;3.00;64.70;;;3.55;53.49;99041.69;5058557;28;20044;-33
2021/03/01 00:15:53;;;;;;;16.07;8.57;;;3.00;64.70;;;3.55;53.35;99041.69;5054429;28;20048;-33
2021/03/01 00:18:21;;;;;;;14.17;7.80;;;3.00;64.60;;;3.53;53.71;99044.41;5046871;28;20255;-33
2021/03/01 00:20:48;;;;;;;15.57;7.90;;;3.00;64.60;;;3.53;53.67;99047.03;5040586;28;20246;-33
2021/03/01 00:23:16;;;;;;;18.70;8.23;;;3.00;64.60;;;3.51;53.81;99043.63;5041553;28;20053;-33
2021/03/01 00:25:43;;;;;;;13.03;7.00;;;3.00;64.80;;;3.49;53.64;99047.25;5061925;28;20041;-33
2021/03/01 00:28:11;;;;;;;15.90;7.43;;;2.90;64.70;;;3.47;53.64;99049.13;5061425;28;20051;-33
2021/03/01 00:30:38;;;;;;;12.00;7.83;;;2.90;64.90;;;3.46;53.50;99050.94;5061338;28;20060;-33
2021/03/01 00:33:06;;;;;;;16.63;8.10;;;2.90;65.10;;;3.42;53.76;99046.75;5061146;28;20051;-33
2021/03/01 00:35:34;;;;;;;17.47;7.80;;;2.90;65.10;;;3.42;53.96;99045.91;5061581;28;20057;-33
2021/03/01 00:38:02;;;;;;;12.37;7.60;;;2.80;65.10;;;3.40;53.30;99051.25;5059037;28;20083;-32
2021/03/01 00:40:30;;;;;;;16.17;8.77;;;2.80;64.90;;;3.37;54.20;99045.31;5061605;28;20049;-32
2021/03/01 00:42:58;;;;;;;13.90;8.50;;;2.80;65.00;;;3.35;53.77;99045.38;5060661;28;20061;-33
2021/03/01 00:45:25;;;;;;;12.77;8.33;;;2.70;65.00;;;3.31;54.02;99049.09;5061310;28;20045;-32
2021/03/01 00:47:52;;;;;;;14.33;7.77;;;2.70;65.20;;;3.29;53.88;99037.81;5060854;28;20052;-32
2021/03/01 00:50:20;;;;;;;11.90;7.23;;;2.70;65.10;;;3.27;54.02;99043.16;5043950;28;20243;-32
2021/03/01 00:52:47;;;;;;;15.10;8.10;;;2.70;65.30;;;3.26;54.31;99040.63;5060524;28;20265;-32
2021/03/01 00:55:16;;;;;;;12.90;8.33;;;2.70;65.20;;;3.25;54.28;99039.75;5043353;28;20071;-32
2021/03/01 00:57:44;;;;;;;13.70;7.67;;;2.70;65.00;;;3.25;54.19;99041.53;5061613;28;20055;-33
2021/03/01 01:00:18;;;;;;;15.20;9.35;;;2.70;64.80;;;3.24;53.92;99042.47;5054112;28;20041;-32
2021/03/01 01:02:54;;;;;;;16.27;8.27;;;2.70;65.00;;;3.22;54.01;99033.78;5059586;28;20053;-34
2021/03/01 01:05:46;;;;;;;16.67;9.17;;;2.70;65.00;;;3.20;53.74;99033.91;5055828;28;20057;-33
2021/03/01 01:08:13;;;;;;;14.77;8.70;;;2.60;65.10;;;3.16;54.14;99042.88;5060021;28;20059;-32
2021/03/01 01:10:42;;;;;;;12.90;8.30;;;2.60;65.20;;;3.15;54.26;99038.53;5059591;28;20045;-33
2021/03/01 01:13:10;;;;;;;15.80;8.53;;;2.60;65.20;;;3.15;54.42;99038.53;5060818;28;20048;-33
2021/03/01 01:15:37;;;;;;;17.67;9.27;;;2.60;65.30;;;3.13;54.28;99037.78;5054706;28;20187;-32
2021/03/01 01:18:06;;;;;;;18.67;9.43;;;2.50;65.30;;;3.13;54.41;99046.50;5056689;28;20059;-32
2021/03/01 01:20:34;;;;;;;20.67;10.93;;;2.60;65.30;;;3.10;54.17;99037.91;5046422;28;20059;-32
2021/03/01 01:23:02;;;;;;;15.13;8.83;;;2.60;65.40;;;3.10;54.17;99035.28;5037557;28;20075;-32
2021/03/01 01:25:29;;;;;;;15.50;9.70;;;2.50;65.50;;;3.07;54.60;99028.41;5056740;28;20053;-32
2021/03/01 01:27:57;;;;;;;16.77;8.73;;;2.50;65.70;;;3.03;54.49;99024.25;5063916;28;20048;-32
2021/03/01 01:30:26;;;;;;;15.47;8.00;;;2.50;65.80;;;3.02;54.34;99027.78;5065184;28;20055;-32
2021/03/01 01:32:54;;;;;;;19.17;10.67;;;2.50;65.80;;;3.02;54.24;99026.94;5054820;28;20053;-32
2021/03/01 01:35:22;;;;;;;16.23;9.13;;;2.50;65.60;;;3.02;54.56;99026.94;5052452;28;20220;-32
2021/03/01 01:37:49;;;;;;;15.17;8.77;;;2.50;65.30;;;3.01;54.07;99036.63;5047837;28;20061;-33
2021/03/01 01:40:20;;;;;;;15.20;8.73;;;2.50;65.50;;;2.99;54.67;99037.66;5055749;28;20045;-32
2021/03/01 01:42:49;;;;;;;16.13;8.47;;;2.50;65.60;;;2.95;54.75;99037.81;5051396;28;20443;-33
2021/03/01 01:45:20;;;;;;;14.20;8.33;;;2.40;65.70;;;2.92;54.48;99037.09;5055352;28;20060;-32
2021/03/01 01:47:50;;;;;;;14.50;7.67;;;2.40;65.90;;;2.89;54.58;99038.13;5052714;28;20041;-32
2021/03/01 01:50:20;;;;;;;17.60;8.50;;;2.30;65.80;;;2.88;54.84;99035.56;5052528;28;20355;-32
2021/03/01 01:52:49;;;;;;;14.20;7.87;;;2.30;66.00;;;2.86;54.58;99029.53;5043904;28;20056;-32
2021/03/01 01:55:18;;;;;;;12.37;6.93;;;2.30;66.00;;;2.84;54.70;99026.13;5058632;28;20053;-32
2021/03/01 01:57:45;;;;;;;11.70;7.13;;;2.30;66.10;;;2.81;54.83;99021.88;5063762;28;20051;-32
2021/03/01 02:00:46;;;;;;;14.27;8.03;;;2.20;66.10;;;2.80;54.74;99021.97;5064315;28;20339;-32
2021/03/01 02:03:31;;;;;;;15.77;7.80;;;2.30;67.10;;;2.76;55.06;99016.00;5063140;28;20059;-32
2021/03/01 02:06:18;;;;;;;12.77;7.70;;;2.20;66.30;;;2.77;54.70;99012.44;5064321;28;20041;-32
2021/03/01 02:09:21;;;;;;;12.97;7.70;;;2.20;66.30;;;2.76;55.10;99011.59;5062423;28;20325;-32
2021/03/01 02:12:02;;;;;;;15.60;7.60;;;2.20;66.00;;;2.78;54.81;99003.63;5064419;28;20049;-32
2021/03/01 02:14:32;;;;;;;14.43;8.37;;;2.30;65.60;;;2.78;54.51;99006.25;5062973;28;20273;-32
2021/03/01 02:16:59;;;;;;;15.43;8.13;;;2.30;65.40;;;2.76;54.35;99008.97;5055824;28;20041;-32
2021/03/01 02:19:27;;;;;;;14.13;7.10;;;2.20;65.30;;;2.74;54.38;99008.19;5056515;28;20045;-33
2021/03/01 02:21:54;;;;;;;11.37;7.50;;;2.20;65.50;;;2.73;54.56;99003.88;5050682;28;20049;-32
2021/03/01 02:24:30;;;;;;;13.80;8.50;;;2.20;65.80;;;2.72;54.81;98999.53;5024914;28;20250;-32
2021/03/01 02:26:58;;;;;;;11.43;7.13;;;2.20;65.70;;;2.73;54.64;98997.75;5043037;28;20052;-32
2021/03/01 02:29:27;;;;;;;12.13;7.20;;;2.20;65.50;;;2.72;55.11;99001.31;5042941;28;20053;-33
2021/03/01 02:31:59;;;;;;;13.10;8.20;;;2.20;65.50;;;2.70;54.76;99000.53;5043826;28;20242;-33
2021/03/01 02:34:34;;;;;;;12.90;7.67;;;2.20;65.70;;;2.69;54.72;98997.03;5041644;28;20217;-33
2021/03/01 02:37:08;;;;;;;13.77;8.43;;;2.20;66.20;;;2.69;55.37;98993.56;5042988;28;20045;-33
2021/03/01 02:39:41;;;;;;;11.90;8.10;;;2.20;66.30;;;2.68;54.89;99000.63;5040945;28;20355;-33
2021/03/01 02:42:12;;;;;;;11.38;7.55;;;2.10;66.40;;;2.68;55.09;98999.78;5042721;28;20053;-33
2021/03/01 02:44:41;;;;;;;13.20;7.60;;;2.10;66.70;;;2.68;55.17;98994.50;5041921;28;20061;-33
2021/03/01 02:47:11;;;;;;;12.20;7.27;;;2.10;66.20;;;2.68;55.24;98997.16;5042440;28;20045;-33
2021/03/01 02:49:42;;;;;;;12.17;7.67;;;2.20;66.10;;;2.68;54.77;98997.16;5042707;28;20049;-33
2021/03/01 02:52:11;;;;;;;13.70;7.43;;;2.20;65.90;;;2.67;54.80;99000.69;5042139;28;20048;-33
2021/03/01 02:54:40;;;;;;;15.93;8.50;;;2.20;65.70;;;2.66;55.10;98997.22;5048361;28;20059;-33
2021/03/01 02:57:10;;;;;;;14.53;8.40;;;2.10;65.80;;;2.65;54.84;99007.81;5062605;28;20234;-33
2021/03/01 02:59:39;;;;;;;15.17;7.83;;;2.10;65.90;;;2.64;55.15;98998.22;5062296;28;20247;-33
2021/03/01 03:02:08;;;;;;;14.13;7.37;;;2.10;65.80;;;2.59;55.07;99000.22;5063317;28;20051;-33
2021/03/01 03:04:38;;;;;;;16.17;8.47;;;2.00;66.00;;;2.54;55.11;98992.59;5062054;28;20064;-33
2021/03/01 03:07:07;;;;;;;17.60;7.90;;;1.90;66.60;;;2.50;55.11;98997.16;5061744;28;20048;-33
2021/03/01 03:09:36;;;;;;;16.77;7.47;;;1.90;66.80;;;2.48;55.62;98996.38;5063270;28;20053;-33
2021/03/01 03:12:04;;;;;;;12.60;6.97;;;1.90;66.90;;;2.49;55.11;98999.84;5061544;28;20048;-32
2021/03/01 03:14:35;;;;;;;15.37;7.77;;;1.90;66.60;;;2.49;55.64;98999.84;5062574;28;20045;-32
2021/03/01 03:17:03;;;;;;;13.93;8.07;;;1.90;66.30;;;2.48;55.40;98995.50;5061790;28;20053;-32
2021/03/01 03:19:31;;;;;;;13.80;7.93;;;1.90;66.30;;;2.47;55.52;98997.28;5066411;28;20063;-32
2021/03/01 03:21:59;;;;;;;13.40;7.93;;;1.90;66.20;;;2.45;54.88;98998.31;5042830;28;20064;-32
2021/03/01 03:24:26;;;;;;;15.20;8.40;;;1.90;66.40;;;2.40;55.56;98998.53;5028360;28;20055;-32
2021/03/01 03:26:53;;;;;;;13.60;8.30;;;1.80;66.70;;;2.35;55.88;98985.63;5062951;28;20111;-32
2021/03/01 03:29:21;;;;;;;14.03;8.03;;;1.80;67.00;;;2.32;55.70;98993.66;5061849;28;20043;-32
2021/03/01 03:31:48;;;;;;;14.17;8.03;;;1.70;67.40;;;2.30;55.96;98989.41;5061923;28;20059;-32
2021/03/01 03:34:16;;;;;;;16.83;9.27;;;1.70;67.50;;;2.28;55.41;98991.25;5061485;28;20051;-32
2021/03/01 03:36:54;;;;;;;14.93;7.67;;;1.70;67.70;;;2.26;55.55;98986.06;5061730;28;20071;-33
2021/03/01 03:39:22;;;;;;;14.83;8.30;;;1.70;67.90;;;2.25;55.92;98996.66;5062254;28;20063;-33
2021/03/01 03:41:52;;;;;;;13.40;7.93;;;1.70;67.50;;;2.23;55.63;98994.13;5061209;28;20370;-33
2021/03/01 03:44:22;;;;;;;17.57;9.07;;;1.70;67.60;;;2.22;55.70;98994.19;5060668;28;20290;-33
2021/03/01 03:46:51;;;;;;;15.90;8.97;;;1.70;67.70;;;2.21;55.96;98987.22;5061515;28;20055;-33
2021/03/01 03:49:20;;;;;;;15.07;8.07;;;1.60;67.50;;;2.21;56.24;98987.22;5061455;28;20051;-33
2021/03/01 03:51:50;;;;;;;14.87;8.70;;;1.70;67.60;;;2.21;55.89;98984.59;5061883;28;20048;-33
2021/03/01 03:54:22;;;;;;;19.90;9.53;;;1.60;67.90;;;2.21;56.20;98990.72;5061979;28;20055;-33
2021/03/01 03:56:55;;;;;;;26.73;13.50;;;1.60;68.10;;;2.19;56.30;98982.06;5062190;28;20242;-33
2021/03/01 03:59:27;;;;;;;29.63;17.03;;;1.60;68.30;;;2.18;56.68;98990.88;5062503;28;20051;-33
2021/03/01 04:01:56;;;;;;;24.77;13.10;;;1.60;68.30;;;2.17;56.61;98987.41;5045154;28;20049;-33
2021/03/01 04:04:26;;;;;;;21.37;12.63;;;1.60;68.10;;;2.19;56.08;98982.06;5061180;28;20063;-33
2021/03/01 04:06:57;;;;;;;22.37;11.80;;;1.70;68.10;;;2.19;56.42;98984.69;5043942;28;20045;-33
2021/03/01 04:09:26;;;;;;;23.60;12.87;;;1.60;67.80;;;2.19;56.10;98989.94;5044600;28;20053;-33
2021/03/01 04:11:54;;;;;;;19.90;11.97;;;1.60;67.90;;;2.17;56.48;98991.78;5044004;28;20045;-33
2021/03/01 04:14:25;;;;;;;21.77;10.60;;;1.60;67.90;;;2.16;56.02;98987.47;5043999;28;20051;-33
2021/03/01 04:16:57;;;;;;;19.27;10.77;;;1.60;67.90;;;2.17;56.48;98983.88;5061614;28;20338;-33
2021/03/01 04:19:28;;;;;;;20.20;9.57;;;1.60;67.60;;;2.17;56.51;98992.66;5065278;28;20048;-33
2021/03/01 04:21:59;;;;;;;16.47;9.47;;;1.60;67.50;;;2.16;56.05;98987.47;5061109;28;20049;-33
2021/03/01 04:24:30;;;;;;;14.63;9.70;;;1.60;67.40;;;2.15;56.01;98991.88;5062683;28;20339;-33
2021/03/01 04:27:00;;;;;;;12.73;8.90;;;1.60;67.60;;;2.16;56.23;98990.09;5049308;28;20238;-33
2021/03/01 04:29:29;;;;;;;15.60;8.30;;;1.60;67.40;;;2.13;55.92;98987.59;5058475;28;20334;-33
2021/03/01 04:31:59;;;;;;;18.00;8.83;;;1.60;67.50;;;2.13;56.56;98990.22;5057104;28;20052;-33
2021/03/01 04:34:27;;;;;;;14.23;8.83;;;1.60;67.60;;;2.12;56.31;98983.28;5051775;28;20068;-34
2021/03/01 04:36:56;;;;;;;17.97;8.60;;;1.60;67.40;;;2.10;55.98;98982.50;5040427;28;20049;-33
2021/03/01 04:39:24;;;;;;;15.57;8.13;;;1.50;67.50;;;2.07;55.94;98988.75;5023858;28;20063;-33
2021/03/01 04:41:52;;;;;;;12.20;7.93;;;1.40;67.50;;;2.03;56.42;98989.81;5040644;28;20053;-33
2021/03/01 04:44:21;;;;;;;14.27;7.77;;;1.40;67.90;;;2.03;56.22;98995.09;5040312;28;20055;-33
2021/03/01 04:46:53;;;;;;;15.63;8.80;;;1.50;67.80;;;2.05;56.07;98989.75;5059938;28;20055;-33
2021/03/01 04:49:24;;;;;;;15.47;8.27;;;1.50;67.60;;;2.04;56.46;98985.44;5060242;28;20051;-33
2021/03/01 04:51:53;;;;;;;14.40;8.27;;;1.50;67.30;;;2.04;56.23;98991.53;5061528;28;20045;-32
2021/03/01 04:54:22;;;;;;;16.27;9.90;;;1.50;67.10;;;2.03;56.36;98989.81;5060270;28;20323;-33
2021/03/01 04:56:49;;;;;;;16.40;9.60;;;1.50;67.10;;;2.01;56.20;98999.56;5061247;28;20045;-32
2021/03/01 04:59:19;;;;;;;17.93;9.87;;;1.50;67.10;;;2.01;55.76;98993.47;5059715;28;20056;-32
2021/03/01 05:01:52;;;;;;;20.17;10.00;;;1.40;67.10;;;2.00;56.25;98997.00;5060676;28;20056;-32
2021/03/01 05:04:20;;;;;;;18.60;11.20;;;1.40;67.00;;;1.99;55.91;98988.28;5044010;28;20063;-32
2021/03/01 05:06:47;;;;;;;20.67;11.17;;;1.50;67.00;;;1.99;55.85;98988.28;5061248;28;20212;-32
2021/03/01 05:09:16;;;;;;;18.67;9.53;;;1.40;66.80;;;1.99;55.82;98996.16;5061571;28;20051;-33
2021/03/01 05:11:45;;;;;;;18.67;10.77;;;1.40;66.60;;;1.98;55.96;98983.97;5061026;28;20055;-32
2021/03/01 05:14:13;;;;;;;19.83;10.40;;;1.40;67.00;;;1.96;56.13;98996.31;5043288;28;20053;-34
2021/03/01 05:16:40;;;;;;;19.90;11.53;;;1.30;67.10;;;1.94;55.98;98995.56;5061198;28;20239;-32
2021/03/01 05:19:08;;;;;;;20.87;10.93;;;1.40;67.10;;;1.93;56.07;98992.06;5059057;28;20056;-33
2021/03/01 05:21:35;;;;;;;22.43;11.17;;;1.40;67.20;;;1.92;56.28;98997.38;5057462;28;20135;-32
2021/03/01 05:24:03;;;;;;;19.37;9.80;;;1.40;67.30;;;1.91;56.21;99003.56;5042150;28;20053;-32
2021/03/01 05:26:31;;;;;;;25.83;16.70;;;1.40;67.40;;;1.91;56.54;99000.94;5052088;28;20038;-33
2021/03/01 05:28:58;;;;;;;18.17;10.97;;;1.40;67.60;;;1.89;56.42;99005.41;5041268;28;20388;-33
2021/03/01 05:31:26;;;;;;;18.03;10.67;;;1.30;68.10;;;1.89;56.25;99005.41;5073588;22;20041;-38
2021/03/01 05:33:53;;;;;;;20.80;10.47;;;1.30;68.20;;;1.86;56.32;99001.16;5080716;28;20052;-38
2021/03/01 05:36:21;;;;;;;20.30;10.20;;;1.30;68.20;;;1.86;56.87;99002.94;5080846;28;20082;-38
2021/03/01 05:38:48;;;;;;;20.77;11.70;;;1.30;68.40;;;1.86;56.46;99003.78;5080989;28;20052;-38
2021/03/01 05:41:19;;;;;;;24.67;12.70;;;1.30;68.80;;;1.86;56.58;99009.06;5081323;28;20237;-38
2021/03/01 05:43:48;;;;;;;30.50;14.37;;;1.30;68.90;;;1.87;56.38;99008.09;5063184;28;20060;-38
2021/03/01 05:46:16;;;;;;;31.03;15.70;;;1.30;68.60;;;1.86;57.08;99011.69;5080924;28;20234;-38
2021/03/01 05:48:47;;;;;;;22.63;13.37;;;1.40;68.70;;;1.86;56.55;99006.41;5081069;28;20050;-38
2021/03/01 05:51:16;;;;;;;26.60;12.07;;;1.40;68.70;;;1.85;56.76;99007.34;5081124;28;20050;-39
2021/03/01 05:53:46;;;;;;;27.03;11.87;;;1.30;68.60;;;1.85;57.11;99007.34;5080711;28;20058;-38
2021/03/01 05:56:14;;;;;;;34.40;16.27;;;1.30;68.60;;;1.83;56.61;99000.47;5063163;28;20059;-38
2021/03/01 05:58:42;;;;;;;30.47;13.23;;;1.30;68.40;;;1.81;57.09;99008.41;5081082;28;20054;-37
2021/03/01 06:01:09;;;;;;;30.07;13.33;;;1.30;68.60;;;1.78;57.04;99008.53;5078199;28;20055;-38
2021/03/01 06:03:37;;;;;;;26.80;12.73;;;1.20;68.90;;;1.76;57.21;99007.75;5080449;28;20064;-38
2021/03/01 06:06:06;;;;;;;26.53;12.80;;;1.20;69.10;;;1.72;57.07;99007.06;5063114;28;20036;-38
2021/03/01 06:08:34;;;;;;;27.93;15.07;;;1.10;68.90;;;1.71;56.79;99015.03;5078867;28;20140;-37
2021/03/01 06:11:06;;;;;;;29.77;14.43;;;1.10;69.00;;;1.69;57.54;99014.25;5080784;28;20045;-37
2021/03/01 06:13:37;;;;;;;25.27;12.27;;;1.10;69.50;;;1.67;57.04;99027.44;5079512;28;20055;-38
2021/03/01 06:16:06;;;;;;;26.37;12.97;;;1.10;69.20;;;1.67;56.70;99018.72;5084024;28;20044;-37
2021/03/01 06:18:44;;;;;;;24.70;11.57;;;1.10;69.20;;;1.67;57.37;99024.81;5084330;28;20058;-39
2021/03/01 06:21:17;;;;;;;24.03;12.63;;;1.10;69.30;;;1.66;56.93;99020.47;5063316;28;20062;-38
2021/03/01 06:23:45;;;;;;;23.13;11.70;;;1.10;68.90;;;1.67;57.46;99029.22;5082438;28;20052;-38
2021/03/01 06:26:25;;;;;;;27.10;11.50;;;1.20;68.90;;;1.69;57.59;99027.38;5082143;28;20036;-38
2021/03/01 06:29:14;;;;;;;20.33;10.77;;;1.20;69.30;;;1.69;57.45;99027.38;5083872;28;20322;-38
2021/03/01 06:31:47;;;;;;;22.40;12.30;;;1.20;69.00;;;1.68;57.24;99018.63;5082794;28;20066;-38
2021/03/01 06:34:30;;;;;;;20.25;11.43;;;1.20;69.10;;;1.71;57.52;99026.38;5083738;28;20241;-37
2021/03/01 06:37:11;;;;;;;18.43;10.40;;;1.20;69.80;;;1.72;57.41;99030.69;5082590;28;20257;-38
2021/03/01 06:39:51;;;;;;;18.30;9.80;;;1.30;69.80;;;1.74;57.16;99039.34;5083190;28;20354;-38
2021/03/01 06:42:21;;;;;;;14.57;8.63;;;1.30;69.60;;;1.77;57.64;99033.13;5065266;28;20048;-38
2021/03/01 06:44:57;;;;;;;17.07;9.97;;;1.30;69.60;;;1.80;57.88;99038.19;5066026;28;20048;-38
2021/03/01 06:47:56;;;;;;;14.90;9.03;;;1.40;69.60;;;1.83;57.85;99037.22;5083144;28;20060;-38
2021/03/01 06:50:33;;;;;;;17.17;9.47;;;1.40;70.10;;;1.86;57.90;99042.31;5082643;28;20052;-38
2021/03/01 06:53:16;;;;;;;20.57;10.80;;;1.40;69.60;;;1.87;57.56;99041.41;5065012;28;20377;-38
2021/03/01 06:56:05;;;;;;;21.13;9.03;;;1.40;70.10;;;1.89;57.67;99036.94;5064403;28;20062;-38
2021/03/01 06:58:44;;;;;;;18.53;8.87;;;1.50;70.30;;;1.93;57.64;99038.50;5081247;28;20059;-39
2021/03/01 07:01:19;;;;;;;18.53;10.13;;;1.50;70.10;;;1.95;57.39;99039.25;5082456;28;20057;-38
2021/03/01 07:03:50;;;;;;;20.07;10.37;;;1.50;69.60;;;1.96;58.40;99033.94;5083021;28;20224;-38
2021/03/01 07:06:19;;;;;;;17.77;9.93;;;1.60;69.80;;;2.00;57.77;99044.28;5081552;28;20044;-38
2021/03/01 07:08:54;;;;;;;17.93;9.10;;;1.60;69.60;;;2.03;58.15;99045.00;5082941;28;20070;-39
2021/03/01 07:11:26;;;;;;;15.70;8.23;;;1.60;69.60;;;2.06;58.30;99049.28;5081119;28;20060;-39
2021/03/01 07:14:04;;;;;;;15.53;7.83;;;1.60;69.40;;;2.11;57.81;99042.88;5081758;28;20389;-39
2021/03/01 07:16:43;;;;;;;13.83;8.30;;;1.70;69.50;;;2.16;57.96;99050.53;5082925;28;20044;-38
2021/03/01 07:19:20;;;;;;;16.73;8.83;;;1.80;69.70;;;2.21;57.95;99052.91;5081624;28;20052;-38
2021/03/01 07:22:00;;;;;;;15.33;8.27;;;1.80;69.50;;;2.27;57.72;99049.97;5062386;28;20080;-39
2021/03/01 07:24:30;;;;;;;11.70;7.47;;;1.90;69.30;;;2.32;58.09;99043.59;5073256;28;20375;-39
2021/03/01 07:27:01;;;;;;;16.13;8.03;;;2.00;69.20;;;2.38;57.92;99045.06;5079737;28;20054;-38
2021/03/01 07:29:39;;;;;;;16.57;8.57;;;2.00;69.00;;;2.40;58.11;99055.50;5082781;28;20066;-39
2021/03/01 07:32:13;;;;;;;16.80;8.30;;;2.10;69.30;;;2.45;58.14;99043.84;5081434;28;20044;-39
2021/03/01 07:34:41;;;;;;;19.73;8.45;;;2.10;69.30;;;2.50;58.36;99054.13;5082945;28;20044;-38
2021/03/01 07:37:09;;;;;;;12.43;7.60;;;2.20;69.40;;;2.53;57.91;99048.72;5064804;28;20048;-39
2021/03/01 07:39:37;;;;;;;19.27;7.60;;;2.20;69.10;;;2.58;58.36;99045.84;5082778;28;20048;-38
2021/03/01 07:42:06;;;;;;;14.70;7.20;;;2.30;68.90;;;2.62;57.65;99052.66;5082291;28;20044;-39
2021/03/01 07:44:36;;;;;;;13.70;7.73;;;2.30;68.80;;;2.65;57.98;99049.88;5066030;28;20060;-38
2021/03/01 07:47:06;;;;;;;12.33;7.03;;;2.30;68.80;;;2.69;57.70;99049.63;5059928;28;20395;-39
2021/03/01 07:49:43;;;;;;;14.27;7.07;;;2.40;69.50;;;2.75;57.98;99048.47;5065024;28;20041;-39
2021/03/01 07:52:19;;;;;;;14.43;7.33;;;2.50;68.60;;;2.80;57.88;99049.09;5081627;28;20051;-39
2021/03/01 07:54:55;;;;;;;15.97;7.57;;;2.50;68.30;;;2.84;57.94;99044.53;5080941;28;20054;-39
2021/03/01 07:57:28;;;;;;;13.17;7.17;;;2.60;67.90;;;2.88;57.74;99053.97;5080406;28;20411;-39
2021/03/01 07:59:58;;;;;;;14.93;7.47;;;2.60;67.70;;;2.92;57.98;99061.63;5082217;28;20278;-39
2021/03/01 08:02:30;;;;;;;11.37;7.37;;;2.60;67.60;;;2.98;58.06;99059.63;5079823;28;20067;-39
2021/03/01 08:05:00;;;;;;;15.17;9.00;;;2.70;67.60;;;3.01;57.55;99052.41;5063502;28;20258;-39
2021/03/01 08:07:43;;;;;;;11.93;7.87;;;2.70;67.30;;;3.06;57.44;99054.81;5081484;28;20324;-39
2021/03/01 08:10:28;;;;;;;14.07;7.10;;;2.80;67.30;;;3.10;57.54;99059.84;5082111;28;20238;-39
2021/03/01 08:13:06;;;;;;;12.30;7.10;;;2.90;67.10;;;3.14;57.08;99053.50;5080447;28;20354;-39
2021/03/01 08:15:42;;;;;;;15.57;7.70;;;2.90;67.10;;;3.21;57.34;99054.00;5063976;28;20055;-39
2021/03/01 08:18:13;;;;;;;14.63;8.00;;;3.00;67.00;;;3.24;57.74;99051.22;5082097;28;20078;-39
2021/03/01 08:20:54;;;;;;;15.83;7.97;;;3.00;67.10;;;3.27;57.77;99052.84;5081405;28;20048;-39
2021/03/01 08:23:30;;;;;;;14.03;8.10;;;3.00;67.10;;;3.33;57.38;99052.50;5078411;28;20055;-39
2021/03/01 08:25:59;;;;;;;16.90;8.40;;;3.10;67.10;;;3.37;57.68;99056.66;5062702;28;20048;-39
2021/03/01 08:28:27;;;;;;;17.17;7.77;;;3.20;67.10;;;3.42;57.41;99057.28;5081381;28;20047;-39
2021/03/01 08:31:22;;;;;;;11.60;6.67;;;3.20;66.80;;;3.46;57.22;99056.19;5081625;28;20048;-39
2021/03/01 08:33:50;;;;;;;13.87;7.63;;;3.20;66.70;;;3.51;57.46;99053.34;5062472;28;20056;-39
2021/03/01 08:36:30;;;;;;;13.50;8.07;;;3.30;66.90;;;3.55;57.39;99057.50;5080556;28;20249;-40
2021/03/01 08:38:57;;;;;;;16.73;8.97;;;3.30;66.90;;;3.60;57.46;99052.81;5081788;28;20049;-39
2021/03/01 08:41:30;;;;;;;14.37;8.37;;;3.40;67.00;;;3.64;57.41;99062.25;5081393;28;20053;-39
2021/03/01 08:43:59;;;;;;;14.85;8.45;;;3.50;67.90;;;3.68;57.62;99057.66;5081339;28;20048;-38
2021/03/01 08:46:27;;;;;;;15.57;9.23;;;3.50;67.10;;;3.73;57.28;99063.53;5079288;28;20338;-38
2021/03/01 08:48:57;;;;;;;14.47;8.17;;;3.50;67.10;;;3.75;57.19;99066.94;5081916;28;20078;-39
2021/03/01 08:51:24;;;;;;;11.80;7.80;;;3.50;67.00;;;3.78;57.47;99063.28;5081688;28;20372;-37
2021/03/01 08:53:53;;;;;;;15.43;9.37;;;3.60;67.10;;;3.81;57.44;99060.50;5080328;28;20044;-37
2021/03/01 08:56:24;;;;;;;15.57;8.13;;;3.60;67.20;;;3.87;57.87;99065.41;5062865;28;20057;-37
2021/03/01 08:58:52;;;;;;;16.73;8.87;;;3.70;67.50;;;3.91;57.66;99067.78;5079387;28;20044;-37
2021/03/01 09:01:20;;;;;;;17.90;9.73;;;3.70;67.60;;;3.94;57.76;99059.72;5062570;28;20040;-37
2021/03/01 09:03:48;;;;;;;16.37;9.17;;;3.80;67.70;;;3.99;57.89;99054.19;5081051;28;20045;-37
2021/03/01 09:06:23;;;;;;;18.90;9.23;;;3.80;67.70;;;4.05;58.08;99063.53;5063896;28;20045;-37
2021/03/01 09:08:53;;;;;;;17.23;8.37;;;3.90;67.80;;;4.09;57.76;99051.88;5063886;28;20056;-38
2021/03/01 09:11:28;;;;;;;18.90;9.47;;;4.00;67.70;;;4.13;58.41;99046.38;5081139;28;20059;-38
2021/03/01 09:14:02;;;;;;;16.93;9.60;;;4.00;67.70;;;4.19;57.77;99044.31;5079308;28;20052;-39
2021/03/01 09:16:33;;;;;;;16.10;8.88;;;4.10;68.10;;;4.24;57.92;99052.81;5061679;28;20049;-39
2021/03/01 09:19:11;;;;;;;17.60;8.80;;;4.10;68.00;;;4.30;58.21;99041.94;5063919;28;20052;-39
2021/03/01 09:21:41;;;;;;;18.57;8.10;;;4.20;68.10;;;4.37;58.25;99053.84;5080610;28;20090;-39
2021/03/01 09:24:13;;;;;;;16.70;8.60;;;4.30;68.00;;;4.43;58.31;99048.19;5078941;28;20051;-39
2021/03/01 09:26:45;;;;;;;21.47;9.37;;;4.30;67.90;;;4.50;58.47;99049.56;5079728;28;20075;-38
2021/03/01 09:29:15;;;;;;;15.17;9.10;;;4.40;67.70;;;4.57;57.79;99046.56;5078808;28;20044;-38
2021/03/01 09:31:46;;;;;;;18.70;9.17;;;4.50;67.30;;;4.65;57.91;99046.94;5080400;28;20056;-38
2021/03/01 09:34:17;;;;;;;16.37;8.87;;;4.60;67.00;;;4.71;58.13;99047.47;5079976;28;20044;-38
2021/03/01 09:37:07;;;;;;;15.70;8.87;;;4.70;67.10;;;4.81;57.98;99049.53;5080651;28;20044;-38
2021/03/01 09:39:38;;;;;;;11.53;7.10;;;4.80;66.90;;;4.88;57.91;99048.25;5063048;28;20049;-38
2021/03/01 09:42:06;;;;;;;13.17;7.73;;;4.90;66.40;;;4.96;57.69;99045.16;5079768;28;20052;-39
2021/03/01 09:44:37;;;;;;;18.07;8.90;;;5.00;65.90;;;5.03;57.26;99038.56;5079634;28;20082;-39
2021/03/01 09:47:08;;;;;;;12.93;8.20;;;5.10;65.80;;;5.10;57.41;99046.03;5079818;28;20046;-39
2021/03/01 09:49:41;;;;;;;12.50;7.20;;;5.10;66.50;;;5.18;56.92;99045.56;5080384;28;20242;-38
2021/03/01 09:52:09;;;;;;;14.43;8.90;;;5.20;65.20;;;5.24;57.07;99033.78;5064496;28;20051;-39
2021/03/01 09:54:39;;;;;;;15.83;8.37;;;5.30;65.20;;;5.31;57.26;99043.00;5064597;28;20059;-38
2021/03/01 09:57:08;;;;;;;17.37;8.43;;;5.40;64.90;;;5.36;57.08;99038.31;5058035;28;20363;-38
2021/03/01 09:59:43;;;;;;;11.73;7.13;;;5.40;64.70;;;5.42;55.42;99039.72;5083489;28;20044;-37
2021/03/01 10:02:16;;;;;;;14.87;8.17;;;5.50;64.00;;;5.50;57.13;99038.28;5082221;28;20072;-37
2021/03/01 10:04:46;;;;;;;16.38;9.02;;;5.60;64.40;;;5.57;56.25;99025.56;5080143;28;20049;-38
2021/03/01 10:07:33;;;;;;;11.23;7.07;;;5.70;64.10;;;5.66;55.97;99032.03;5083798;28;20245;-38
2021/03/01 10:10:15;;;;;;;13.63;7.23;;;5.70;63.50;;;5.74;56.04;99029.78;5082926;28;20364;-38
2021/03/01 10:12:48;;;;;;;13.17;7.63;;;5.80;62.60;;;5.82;56.41;99029.31;5082253;28;20052;-39
2021/03/01 10:15:20;;;;;;;11.87;7.10;;;5.90;63.40;;;5.88;56.35;99023.63;5082734;28;20238;-39
2021/03/01 10:18:07;;;;;;;10.23;6.30;;;6.00;63.00;;;5.93;55.17;99026.81;5083522;28;20051;-39
2021/03/01 10:20:54;;;;;;;11.37;7.30;;;6.00;61.50;;;6.01;55.09;99029.88;5064258;28;20059;-39
2021/03/01 10:23:42;;;;;;;11.77;7.23;;;6.10;61.10;;;6.09;55.26;99029.38;5063291;28;20059;-39
2021/03/01 10:26:21;;;;;;;11.80;6.23;;;6.20;61.00;;;6.17;54.71;99027.06;5064382;28;20321;-39
2021/03/01 10:28:56;;;;;;;10.80;6.13;;;6.30;61.30;;;6.23;54.94;99023.19;5064009;28;20040;-39
2021/03/01 10:31:31;;;;;;;14.93;7.73;;;6.40;60.90;;;6.29;54.47;99020.97;5076148;28;20041;-39
2021/03/01 10:34:04;;;;;;;11.70;6.47;;;6.40;61.10;;;6.36;54.35;99028.50;5066837;28;20048;-38
2021/03/01 10:36:55;;;;;;;14.33;6.70;;;6.50;60.90;;;6.45;54.21;99019.97;5083752;28;20055;-38
2021/03/01 10:39:34;;;;;;;10.53;6.83;;;6.50;60.80;;;6.49;54.45;99010.88;5082298;28;20227;-38
2021/03/01 10:42:21;;;;;;;14.17;7.13;;;6.60;60.10;;;6.57;53.98;99013.88;5083719;28;20257;-38
2021/03/01 10:44:53;;;;;;;11.70;6.17;;;6.70;60.20;;;6.64;53.71;99012.50;5083778;28;20040;-38